Time;durP1;ratioP1;P1;durP2;ratioP2;P2;SDS_P1;SDS_P2;PMS_P1;PMS_P2;Temp;Humidity;BMP_temperature;BMP_pressure;BME280_temperature;BME280_humidity;BME280_pressure;Samples;Min_cycle;Max_cycle;Signal;HPM_P1;HPM_P2
2021/07/14 00:00:41;;;;;;;0.40;0.00;;;;;;;24.38;61.01;99892.88;126591;1095;103339;-85
2021/07/14 00:03:17;;;;;;;0.40;0.00;;;;;;;24.44;61.13;99886.00;126673;1095;101887;-87
2021/07/14 00:05:53;;;;;;;0.40;0.00;;;;;;;24.39;60.89;99880.97;126540;1096;102897;-85
2021/07/14 00:08:37;;;;;;;0.40;0.00;;;;;;;24.36;60.90;99883.98;126501;1096;101540;-87
2021/07/14 00:11:28;;;;;;;0.40;0.00;;;;;;;24.45;60.89;99877.69;126548;1096;102915;-87
2021/07/14 00:14:56;;;;;;;0.40;0.00;;;;;;;24.36;60.85;99875.81;126516;1095;103023;-87
2021/07/14 00:17:49;;;;;;;0.40;0.00;;;;;;;24.34;61.03;99878.69;126739;1095;102893;-86
2021/07/14 00:23:42;;;;;;;0.40;0.00;;;;;;;24.15;61.58;99882.25;126488;1095;102895;-86
2021/07/14 00:26:39;;;;;;;0.40;0.00;;;;;;;24.16;61.44;99881.23;126558;1096;103004;-86
2021/07/14 00:29:27;;;;;;;0.40;0.00;;;;;;;24.20;61.52;99876.38;126520;1096;102934;-86
2021/07/14 00:32:25;;;;;;;0.40;0.00;;;;;;;24.17;62.10;99871.23;126768;1095;102928;-87
2021/07/14 00:35:12;;;;;;;0.40;0.00;;;;;;;24.05;62.18;99867.77;126652;1096;102900;-87
2021/07/14 00:37:48;;;;;;;0.40;0.00;;;;;;;24.04;62.08;99871.48;126646;1095;102796;-86
2021/07/14 00:40:34;;;;;;;0.40;0.00;;;;;;;24.10;61.84;99872.77;126580;1096;102894;-86
2021/07/14 00:43:22;;;;;;;0.40;0.00;;;;;;;24.21;61.63;99865.34;126702;1096;102887;-87
2021/07/14 00:46:08;;;;;;;0.40;0.00;;;;;;;24.13;61.67;99865.20;127123;1096;101615;-87
2021/07/14 00:48:59;;;;;;;0.40;0.00;;;;;;;24.01;62.06;99869.05;126677;1097;101798;-86
2021/07/14 00:51:42;;;;;;;0.40;0.00;;;;;;;23.91;62.14;99860.01;126527;1095;102895;-86
2021/07/14 00:54:30;;;;;;;0.40;0.00;;;;;;;23.95;62.38;99861.44;126473;1095;102965;-85
2021/07/14 00:57:18;;;;;;;0.40;0.00;;;;;;;23.99;62.42;99868.32;126635;1095;102902;-87
2021/07/14 01:00:04;;;;;;;0.40;0.00;;;;;;;24.02;62.07;99862.63;126933;1096;101824;-87
2021/07/14 01:02:41;;;;;;;0.40;0.00;;;;;;;23.95;62.27;99869.60;126400;1096;103310;-81
2021/07/14 01:05:19;;;;;;;0.40;0.00;;;;;;;23.88;62.51;99872.87;126321;1093;114833;-77
2021/07/14 01:08:19;;;;;;;0.40;0.00;;;;;;;23.87;63.37;99876.58;126093;1096;103085;-77
2021/07/14 01:10:50;;;;;;;0.40;0.00;;;;;;;23.86;62.61;99879.45;126306;1094;103036;-78
2021/07/14 01:13:58;;;;;;;0.40;0.00;;;;;;;23.86;62.96;99877.58;126242;1096;103016;-77
2021/07/14 01:16:30;;;;;;;0.40;0.00;;;;;;;23.98;62.50;99880.23;127474;1095;101642;-76
2021/07/14 01:18:58;;;;;;;0.40;0.00;;;;;;;24.01;62.64;99880.78;127606;1095;100704;-78
2021/07/14 01:21:34;;;;;;;0.40;0.00;;;;;;;23.88;62.53;99893.75;126167;1096;102985;-78
2021/07/14 01:24:08;;;;;;;0.40;0.00;;;;;;;23.75;62.84;99882.26;126116;1094;102827;-77
2021/07/14 01:27:07;;;;;;;0.40;0.00;;;;;;;23.77;62.99;99880.28;126008;1095;102894;-77
2021/07/14 01:29:35;;;;;;;0.40;0.00;;;;;;;23.70;63.17;99877.25;126236;1096;103351;-76
2021/07/14 01:32:03;;;;;;;0.40;0.00;;;;;;;23.67;63.21;99875.66;126268;1095;102919;-78
2021/07/14 01:34:31;;;;;;;0.40;0.00;;;;;;;23.69;63.64;99881.81;125983;1095;103090;-77
2021/07/14 01:37:00;;;;;;;0.40;0.00;;;;;;;23.61;63.75;99884.36;126234;1095;101991;-77
2021/07/14 01:39:31;;;;;;;0.40;0.00;;;;;;;23.62;63.64;99888.81;126318;1095;102901;-78
2021/07/14 01:42:14;;;;;;;0.40;0.00;;;;;;;23.68;63.69;99876.52;126373;1095;102891;-78
2021/07/14 01:44:40;;;;;;;0.40;0.00;;;;;;;23.68;63.84;99873.80;126394;1095;101414;-77
2021/07/14 01:47:15;;;;;;;0.40;0.00;;;;;;;23.73;63.90;99876.12;126106;1095;103143;-77
2021/07/14 01:49:43;;;;;;;0.40;0.00;;;;;;;23.71;63.54;99882.55;126230;1095;102998;-78
2021/07/14 01:52:17;;;;;;;0.40;0.00;;;;;;;23.67;63.57;99881.11;126133;1096;102913;-77
2021/07/14 01:54:44;;;;;;;0.40;0.00;;;;;;;23.62;64.19;99877.94;126017;1093;103415;-77
2021/07/14 01:57:11;;;;;;;0.40;0.00;;;;;;;23.62;64.11;99872.50;126283;1095;103108;-77
2021/07/14 01:59:41;;;;;;;0.40;0.00;;;;;;;23.74;64.18;99873.25;126417;1093;102963;-78
2021/07/14 02:02:10;;;;;;;0.40;0.00;;;;;;;23.79;63.72;99880.98;126203;1094;102943;-78
2021/07/14 02:04:40;;;;;;;0.40;0.00;;;;;;;23.85;63.50;99875.00;126485;1093;103051;-78
2021/07/14 02:07:24;;;;;;;0.40;0.00;;;;;;;23.71;63.73;99879.83;126229;1096;103033;-77
2021/07/14 02:09:51;;;;;;;0.40;0.00;;;;;;;23.62;64.14;99890.65;126372;1095;103022;-77
2021/07/14 02:12:22;;;;;;;0.40;0.00;;;;;;;23.55;64.61;99895.77;126297;1096;102999;-77
2021/07/14 02:14:59;;;;;;;0.40;0.00;;;;;;;23.64;64.21;99894.95;126338;1096;102909;-77
2021/07/14 02:17:30;;;;;;;0.40;0.00;;;;;;;23.58;64.33;99897.36;126142;1094;103026;-77
2021/07/14 02:20:08;;;;;;;0.40;0.00;;;;;;;23.59;64.08;99904.52;126042;1095;102913;-77
2021/07/14 02:22:35;;;;;;;0.40;0.00;;;;;;;23.58;64.51;99891.92;126541;1096;103124;-77
2021/07/14 02:25:03;;;;;;;0.40;0.00;;;;;;;23.58;64.20;99886.48;126046;1095;102899;-77
2021/07/14 02:27:30;;;;;;;0.40;0.00;;;;;;;23.56;64.61;99888.50;126075;1096;102924;-77
2021/07/14 02:29:57;;;;;;;0.40;0.00;;;;;;;23.54;64.61;99894.08;127618;1094;100991;-77
2021/07/14 02:32:24;;;;;;;0.40;0.00;;;;;;;23.59;64.52;99897.25;126247;1093;102911;-77
2021/07/14 02:34:53;;;;;;;0.40;0.00;;;;;;;23.69;64.60;99894.55;126237;1096;102919;-77
2021/07/14 02:37:40;;;;;;;0.40;0.00;;;;;;;23.70;64.41;99896.28;126333;1094;102919;-77
2021/07/14 02:40:08;;;;;;;0.40;0.00;;;;;;;23.75;64.15;99888.58;126228;1096;102174;-78
2021/07/14 02:42:37;;;;;;;0.40;0.00;;;;;;;23.82;63.79;99902.48;126364;1093;103017;-78
2021/07/14 02:45:05;;;;;;;0.40;0.00;;;;;;;23.81;64.14;99901.60;126242;1096;101915;-77
2021/07/14 02:47:38;;;;;;;0.40;0.00;;;;;;;23.89;64.13;99898.23;126316;1093;102911;-78
2021/07/14 02:50:19;;;;;;;0.40;0.00;;;;;;;23.90;63.77;99894.52;126344;1095;103370;-78
2021/07/14 02:52:49;;;;;;;0.40;0.00;;;;;;;23.75;64.19;99885.86;126020;1095;102898;-77
2021/07/14 02:55:19;;;;;;;0.40;0.00;;;;;;;23.65;64.61;99877.65;126432;1094;102917;-80
2021/07/14 02:57:51;;;;;;;0.40;0.00;;;;;;;23.62;64.94;99887.92;126242;1095;102895;-78
2021/07/14 03:00:18;;;;;;;0.40;0.00;;;;;;;23.60;64.92;99885.35;126356;1096;102906;-78
2021/07/14 03:02:46;;;;;;;0.40;0.00;;;;;;;23.74;64.90;99888.69;126299;1094;102975;-78
2021/07/14 03:05:20;;;;;;;0.40;0.00;;;;;;;23.71;64.85;99879.83;126312;1096;102917;-77
2021/07/14 03:07:48;;;;;;;0.40;0.00;;;;;;;23.66;64.60;99883.97;126257;1095;102923;-78
2021/07/14 03:10:19;;;;;;;0.40;0.00;;;;;;;23.56;65.04;99886.63;125991;1095;103026;-77
2021/07/14 03:12:48;;;;;;;0.40;0.00;;;;;;;23.52;65.12;99880.59;126905;1095;103164;-78
2021/07/14 03:15:15;;;;;;;0.40;0.00;;;;;;;23.52;65.38;99880.59;126401;1093;102975;-77
2021/07/14 03:17:45;;;;;;;0.40;0.00;;;;;;;23.51;65.54;99875.30;126275;1096;102895;-77
2021/07/14 03:20:14;;;;;;;0.40;0.00;;;;;;;23.65;65.36;99876.80;126260;1094;102956;-77
2021/07/14 03:22:47;;;;;;;0.40;0.00;;;;;;;23.67;65.40;99880.22;126446;1096;103032;-77
2021/07/14 03:25:15;;;;;;;0.40;0.00;;;;;;;23.72;65.20;99872.52;126210;1096;102071;-77
2021/07/14 03:27:43;;;;;;;0.40;0.00;;;;;;;23.64;65.44;99875.08;126292;1096;103485;-77
2021/07/14 03:30:10;;;;;;;0.40;0.00;;;;;;;23.57;65.44;99869.33;127594;1096;100936;-77
2021/07/14 03:32:39;;;;;;;0.40;0.00;;;;;;;23.62;65.46;99867.06;126548;1096;102992;-77
2021/07/14 03:35:07;;;;;;;0.40;0.00;;;;;;;23.65;65.66;99871.36;126296;1096;103058;-77
2021/07/14 03:37:35;;;;;;;0.40;0.00;;;;;;;23.63;65.68;99873.34;126264;1093;102936;-77
2021/07/14 03:40:04;;;;;;;0.40;0.00;;;;;;;23.62;65.99;99874.34;126468;1096;102938;-76
2021/07/14 03:42:31;;;;;;;0.40;0.00;;;;;;;23.67;65.75;99881.11;126357;1096;102148;-77
2021/07/14 03:44:58;;;;;;;0.40;0.00;;;;;;;23.75;65.67;99879.54;126211;1095;103132;-77
2021/07/14 03:47:25;;;;;;;0.40;0.00;;;;;;;23.70;65.53;99877.25;126250;1095;102903;-76
2021/07/14 03:49:54;;;;;;;0.40;0.00;;;;;;;23.68;65.54;99876.52;126406;1095;102911;-79
2021/07/14 03:52:21;;;;;;;0.40;0.00;;;;;;;23.67;65.78;99881.11;126441;1095;103358;-77
2021/07/14 03:54:48;;;;;;;0.40;0.00;;;;;;;23.71;65.82;99893.42;126279;1093;103090;-77
2021/07/14 03:57:16;;;;;;;0.40;0.00;;;;;;;23.74;66.00;99889.56;126197;1095;102920;-77
2021/07/14 03:59:43;;;;;;;0.40;0.00;;;;;;;23.67;66.11;99891.09;126298;1092;103000;-77
2021/07/14 04:02:13;;;;;;;0.40;0.00;;;;;;;23.69;65.96;99895.41;126358;1095;104173;-77
2021/07/14 04:04:41;;;;;;;0.40;0.00;;;;;;;23.72;65.73;99899.70;126407;1093;102900;-78
2021/07/14 04:07:14;;;;;;;0.40;0.00;;;;;;;23.73;65.85;99889.71;126219;1093;103455;-78
2021/07/14 04:09:46;;;;;;;0.40;0.00;;;;;;;23.82;66.12;99903.33;126286;1096;103056;-77
2021/07/14 04:12:16;;;;;;;0.40;0.00;;;;;;;23.93;66.02;99896.95;126363;1093;102932;-77
2021/07/14 04:14:45;;;;;;;0.40;0.00;;;;;;;24.04;65.96;99898.69;126318;1096;102888;-78
2021/07/14 04:17:12;;;;;;;0.40;0.00;;;;;;;23.99;66.19;99892.80;126218;1095;102920;-77
2021/07/14 04:19:40;;;;;;;0.40;0.00;;;;;;;23.95;65.76;99889.52;126107;1096;102967;-77
2021/07/14 04:22:08;;;;;;;0.40;0.00;;;;;;;23.96;65.95;99891.22;126253;1096;103011;-78
2021/07/14 04:24:36;;;;;;;0.40;0.00;;;;;;;24.00;66.05;99903.53;126259;1096;102917;-78
2021/07/14 04:27:02;;;;;;;0.40;0.00;;;;;;;24.00;65.45;99899.97;126515;1093;102934;-77
2021/07/14 04:29:29;;;;;;;0.40;0.00;;;;;;;23.94;65.69;99908.67;126189;1096;102942;-77
2021/07/14 04:31:58;;;;;;;0.40;0.00;;;;;;;23.94;66.10;99911.39;126410;1095;101723;-78
2021/07/14 04:34:25;;;;;;;0.40;0.00;;;;;;;23.90;65.71;99907.23;126432;1096;103535;-77
2021/07/14 04:36:52;;;;;;;0.40;0.00;;;;;;;23.90;65.99;99915.39;126107;1096;102903;-77
2021/07/14 04:39:19;;;;;;;0.40;0.00;;;;;;;23.87;66.12;99905.62;126029;1093;102945;-76
2021/07/14 04:41:46;;;;;;;0.40;0.00;;;;;;;23.85;66.37;99907.63;126346;1093;102978;-77
2021/07/14 04:44:18;;;;;;;0.40;0.00;;;;;;;23.80;66.20;99910.75;126339;1096;103026;-77
2021/07/14 04:46:45;;;;;;;0.40;0.00;;;;;;;23.80;66.59;99904.47;126364;1093;103001;-77
2021/07/14 04:49:14;;;;;;;0.40;0.00;;;;;;;23.89;66.55;99909.11;126398;1093;103050;-77
2021/07/14 04:51:43;;;;;;;0.40;0.00;;;;;;;24.09;66.56;99903.72;126267;1096;102863;-78
2021/07/14 04:54:10;;;;;;;0.40;0.00;;;;;;;24.07;65.93;99903.84;126356;1093;102931;-77
2021/07/14 04:56:36;;;;;;;0.40;0.00;;;;;;;24.08;66.14;99902.84;126265;1093;104294;-77
2021/07/14 04:59:03;;;;;;;0.40;0.00;;;;;;;24.21;65.87;99900.72;126313;1096;102961;-78
2021/07/14 05:01:32;;;;;;;0.40;0.00;;;;;;;24.27;65.86;99899.31;126289;1096;103027;-76
2021/07/14 05:03:59;;;;;;;0.40;0.00;;;;;;;24.33;65.66;99897.88;126283;1093;102782;-77
2021/07/14 05:06:25;;;;;;;0.40;0.00;;;;;;;24.27;65.68;99893.88;126203;1095;102974;-75
2021/07/14 05:08:53;;;;;;;0.40;0.00;;;;;;;24.28;65.57;99881.12;126360;1093;103138;-77
2021/07/14 05:11:20;;;;;;;0.40;0.00;;;;;;;24.26;65.60;99885.83;126328;1093;103034;-77
2021/07/14 05:13:46;;;;;;;0.40;0.00;;;;;;;24.32;66.12;99874.38;126293;1093;102908;-77
2021/07/14 05:16:13;;;;;;;0.40;0.00;;;;;;;24.41;66.51;99878.97;126308;1096;102916;-78
2021/07/14 05:18:39;;;;;;;0.40;0.00;;;;;;;24.56;66.17;99879.39;126142;1095;103416;-78
2021/07/14 05:21:06;;;;;;;0.40;0.00;;;;;;;24.73;66.25;99880.58;126142;1094;103036;-78
2021/07/14 05:23:35;;;;;;;0.40;0.00;;;;;;;24.84;65.46;99883.13;126173;1095;103028;-77
2021/07/14 05:26:02;;;;;;;0.40;0.00;;;;;;;24.90;64.59;99878.10;126221;1093;103355;-78
2021/07/14 05:28:28;;;;;;;0.40;0.00;;;;;;;24.91;64.94;99880.70;126274;1095;102972;-77
2021/07/14 05:30:55;;;;;;;0.40;0.00;;;;;;;24.90;64.91;99869.93;126330;1096;102887;-77
2021/07/14 05:33:22;;;;;;;0.40;0.00;;;;;;;24.91;64.84;99871.66;126314;1096;103059;-77
2021/07/14 05:35:49;;;;;;;0.40;0.00;;;;;;;25.01;65.38;99869.78;126308;1095;102920;-79
2021/07/14 05:38:19;;;;;;;0.40;0.00;;;;;;;25.11;65.03;99873.34;126222;1094;102916;-77
2021/07/14 05:40:51;;;;;;;0.40;0.00;;;;;;;25.21;65.34;99876.88;126317;1095;103326;-77
2021/07/14 05:43:19;;;;;;;0.40;0.00;;;;;;;25.25;64.81;99874.73;126302;1096;103073;-77
2021/07/14 05:45:46;;;;;;;0.40;0.00;;;;;;;25.31;64.43;99867.81;126341;1095;102935;-78
2021/07/14 05:48:12;;;;;;;0.40;0.00;;;;;;;25.35;64.52;99872.86;126285;1096;102998;-78
2021/07/14 05:50:40;;;;;;;0.40;0.00;;;;;;;25.40;63.96;99874.28;126266;1093;102919;-77
2021/07/14 05:53:07;;;;;;;0.40;0.00;;;;;;;25.51;64.52;99874.08;126242;1093;102978;-78
2021/07/14 05:55:34;;;;;;;0.40;0.00;;;;;;;25.68;64.33;99869.70;126227;1093;103045;-78
2021/07/14 05:58:00;;;;;;;0.40;0.00;;;;;;;25.85;64.00;99865.30;126091;1096;103079;-77
2021/07/14 06:00:27;;;;;;;0.40;0.00;;;;;;;26.03;62.95;99866.23;126161;1095;102898;-76
2021/07/14 06:02:54;;;;;;;0.40;0.00;;;;;;;26.09;63.23;99870.20;126188;1096;102891;-77
2021/07/14 06:05:21;;;;;;;0.40;0.00;;;;;;;26.10;62.71;99860.14;126313;1093;103636;-77
2021/07/14 06:07:47;;;;;;;0.40;0.00;;;;;;;26.11;62.48;99861.86;126189;1093;102926;-76
2021/07/14 06:10:14;;;;;;;0.40;0.00;;;;;;;26.20;63.08;99863.66;126203;1095;103036;-77
2021/07/14 06:12:40;;;;;;;0.40;0.00;;;;;;;26.18;62.56;99861.09;126327;1095;102903;-77
2021/07/14 06:15:09;;;;;;;0.40;0.00;;;;;;;26.25;62.62;99868.67;126269;1095;102914;-77
2021/07/14 06:17:35;;;;;;;0.40;0.00;;;;;;;26.32;62.61;99867.02;126286;1093;103170;-76
2021/07/14 06:20:04;;;;;;;0.40;0.00;;;;;;;26.39;63.40;99875.45;126299;1097;102922;-78
2021/07/14 06:22:31;;;;;;;0.40;0.00;;;;;;;26.53;63.20;99880.37;126109;1096;102918;-78
2021/07/14 06:24:57;;;;;;;0.40;0.00;;;;;;;26.73;62.36;99874.77;126246;1095;103046;-77
2021/07/14 06:27:41;;;;;;;0.40;0.00;;;;;;;26.80;62.13;99867.64;126164;1093;101840;-77
2021/07/14 06:30:11;;;;;;;0.40;0.00;;;;;;;26.91;61.89;99870.13;125939;1094;102929;-77
2021/07/14 06:32:39;;;;;;;0.40;0.00;;;;;;;27.08;62.42;99875.70;126231;1095;103408;-77
2021/07/14 06:35:09;;;;;;;0.40;0.00;;;;;;;27.18;62.22;99869.11;126406;1095;102895;-77
2021/07/14 06:37:38;;;;;;;0.40;0.00;;;;;;;27.29;61.32;99861.66;126189;1093;102941;-78
2021/07/14 06:40:13;;;;;;;0.40;0.00;;;;;;;27.41;62.29;99867.73;126224;1096;103132;-77
2021/07/14 06:42:40;;;;;;;0.40;0.00;;;;;;;27.42;62.08;99869.43;126062;1096;102898;-77
2021/07/14 06:45:10;;;;;;;0.40;0.00;;;;;;;27.43;61.96;99866.56;126125;1094;103041;-77
2021/07/14 06:47:37;;;;;;;0.40;0.00;;;;;;;27.55;60.81;99866.25;126200;1096;102945;-77
2021/07/14 06:50:13;;;;;;;0.40;0.00;;;;;;;27.61;61.01;99866.45;125950;1096;103045;-77
2021/07/14 06:52:41;;;;;;;0.40;0.00;;;;;;;27.66;61.28;99866.82;126073;1096;103069;-77
2021/07/14 06:55:08;;;;;;;0.40;0.00;;;;;;;27.71;59.98;99866.34;126185;1094;103062;-77
2021/07/14 06:57:36;;;;;;;0.40;0.00;;;;;;;27.71;59.48;99871.81;126246;1096;102996;-78
2021/07/14 07:00:05;;;;;;;0.40;0.00;;;;;;;27.65;58.79;99870.57;126095;1095;103429;-77
2021/07/14 07:02:32;;;;;;;0.40;0.00;;;;;;;27.69;58.79;99861.01;126261;1096;102910;-78
2021/07/14 07:04:58;;;;;;;0.40;0.00;;;;;;;27.80;60.38;99859.00;126207;1095;102926;-78
2021/07/14 07:07:25;;;;;;;0.40;0.00;;;;;;;27.96;60.29;99869.98;125997;1095;103016;-77
2021/07/14 07:09:52;;;;;;;0.40;0.00;;;;;;;28.05;59.32;99867.33;126190;1096;102994;-77
2021/07/14 07:12:19;;;;;;;0.40;0.00;;;;;;;28.15;58.92;99860.68;126022;1096;104088;-78
2021/07/14 07:14:48;;;;;;;0.40;0.00;;;;;;;28.31;58.79;99857.11;126307;1096;102932;-78
2021/07/14 07:21:07;;;;;;;0.40;0.00;;;;;;;28.42;58.23;99852.31;126226;1094;102676;-90
2021/07/14 07:23:36;;;;;;;0.40;0.00;;;;;;;28.55;58.68;99854.55;126424;1093;104446;-91
2021/07/14 07:26:04;;;;;;;0.40;0.00;;;;;;;28.72;58.03;99856.29;126393;1096;102994;-91
2021/07/14 07:29:22;;;;;;;;;;;;;;;;;;;;;
2021/07/14 07:35:52;;;;;;;0.40;0.00;;;;;;;29.01;57.65;99860.38;126268;1096;101156;-90
2021/07/14 07:53:51;;;;;;;;;;;;;;;;;;;;;
2021/07/14 07:57:43;;;;;;;0.40;0.00;;;;;;;29.82;56.05;99854.84;125464;1099;102993;-89
2021/07/14 08:04:08;;;;;;;0.40;0.00;;;;;;;29.88;56.53;99858.78;126146;1096;103168;-89
2021/07/14 08:06:42;;;;;;;0.40;0.00;;;;;;;29.98;55.96;99854.77;126383;1096;103384;-89
2021/07/14 08:09:31;;;;;;;0.40;0.00;;;;;;;30.07;54.97;99854.72;126384;1096;102910;-90
2021/07/14 08:12:09;;;;;;;0.40;0.00;;;;;;;30.13;53.75;99859.50;126536;1097;101528;-89
2021/07/14 08:15:26;;;;;;;;;;;;;;;;;;;;;
2021/07/14 08:18:08;;;;;;;0.40;0.00;;;;;;;30.24;54.98;99858.22;126441;1097;103031;-90
2021/07/14 08:24:26;;;;;;;0.40;0.00;;;;;;;30.59;55.49;99872.41;126180;1095;102927;-90
2021/07/14 08:32:55;;;;;;;;;;;;;;;;;;;;;
2021/07/14 08:48:01;;;;;;;0.40;0.00;;;;;;;31.29;51.03;99881.42;125321;1100;103098;-90
2021/07/14 08:55:33;;;;;;;0.40;0.00;;;;;;;31.62;50.88;99879.17;125434;1100;102981;-90
2021/07/14 08:58:13;;;;;;;0.40;0.00;;;;;;;31.77;51.45;99886.57;126149;1099;103084;-89
2021/07/14 09:08:43;;;;;;;0.40;0.00;;;;;;;32.01;50.20;99886.22;125192;1100;102884;-91
2021/07/14 09:19:14;;;;;;;0.40;0.00;;;;;;;32.68;48.92;99872.33;126371;1095;103160;-76
2021/07/14 09:21:59;;;;;;;0.40;0.00;;;;;;;32.88;49.53;99878.05;126579;1095;102850;-75
2021/07/14 09:24:43;;;;;;;0.40;0.00;;;;;;;33.17;50.49;99881.67;126477;1096;103388;-75
2021/07/14 09:27:37;;;;;;;0.40;0.00;;;;;;;33.46;48.41;99886.14;126530;1096;102980;-77
2021/07/14 09:30:38;;;;;;;0.40;0.00;;;;;;;33.51;47.26;99882.78;126517;1096;102975;-77
2021/07/14 09:33:20;;;;;;;0.40;0.00;;;;;;;33.69;46.22;99887.75;126467;1095;101685;-76
2021/07/14 09:36:01;;;;;;;0.40;0.00;;;;;;;33.93;45.98;99893.84;126585;1095;102933;-77
2021/07/14 09:38:36;;;;;;;0.40;0.00;;;;;;;34.57;45.71;99881.49;126552;1096;103109;-76
2021/07/14 09:41:24;;;;;;;0.40;0.00;;;;;;;35.23;42.82;99882.59;126359;1096;102989;-78
2021/07/14 09:43:54;;;;;;;0.40;0.00;;;;;;;35.54;41.16;99891.30;126372;1095;102933;-76
2021/07/14 09:46:36;;;;;;;0.40;0.00;;;;;;;36.01;41.54;99889.22;126425;1096;102953;-77
2021/07/14 09:49:18;;;;;;;0.40;0.00;;;;;;;36.55;39.49;99892.58;126386;1094;103006;-77
2021/07/14 09:52:28;;;;;;;0.40;0.00;;;;;;;36.79;38.88;99885.34;126366;1096;103290;-76
2021/07/14 09:55:29;;;;;;;0.40;0.00;;;;;;;37.44;38.18;99894.41;126462;1095;101740;-76
2021/07/14 09:58:26;;;;;;;0.40;0.00;;;;;;;37.74;36.03;99899.22;126556;1095;103035;-75
2021/07/14 10:01:15;;;;;;;0.40;0.00;;;;;;;37.90;35.74;99889.43;126276;1096;102911;-76
2021/07/14 10:03:59;;;;;;;0.40;0.00;;;;;;;38.20;36.15;99892.20;126371;1095;102879;-77
2021/07/14 10:06:42;;;;;;;0.40;0.00;;;;;;;38.38;36.57;99894.13;126335;1096;102959;-76
2021/07/14 10:09:25;;;;;;;0.40;0.00;;;;;;;38.71;35.57;99894.73;126339;1095;102994;-75
2021/07/14 10:12:27;;;;;;;0.40;0.00;;;;;;;38.97;34.21;99891.49;126454;1096;102913;-75
2021/07/14 10:15:13;;;;;;;0.40;0.00;;;;;;;39.43;35.97;99899.30;126490;1094;103516;-76
2021/07/14 10:17:51;;;;;;;0.40;0.00;;;;;;;39.78;32.96;99890.05;126459;1096;102981;-77
2021/07/14 10:20:35;;;;;;;0.40;0.00;;;;;;;39.91;33.12;99891.70;126523;1095;102997;-76
2021/07/14 10:23:22;;;;;;;0.40;0.00;;;;;;;40.17;34.08;99889.47;126488;1097;102978;-76
2021/07/14 10:26:22;;;;;;;0.40;0.00;;;;;;;40.58;33.44;99887.47;126583;1095;102874;-77
2021/07/14 10:28:56;;;;;;;0.40;0.00;;;;;;;40.69;31.77;99891.28;126341;1096;104400;-76
2021/07/14 10:31:41;;;;;;;0.40;0.00;;;;;;;40.65;30.77;99893.73;126643;1096;102909;-76
2021/07/14 10:34:23;;;;;;;0.40;0.00;;;;;;;40.92;30.44;99887.47;126352;1095;103007;-76
2021/07/14 10:37:06;;;;;;;0.40;0.00;;;;;;;40.85;30.43;99897.98;126445;1094;102911;-76
2021/07/14 10:39:49;;;;;;;0.40;0.00;;;;;;;40.97;29.70;99901.55;126434;1095;103022;-76
2021/07/14 10:42:35;;;;;;;0.40;0.00;;;;;;;40.90;31.19;99900.86;126561;1094;101881;-76
2021/07/14 10:45:23;;;;;;;0.40;0.00;;;;;;;40.87;30.44;99902.21;126578;1096;103034;-78
2021/07/14 10:47:55;;;;;;;0.40;0.00;;;;;;;40.56;31.87;99900.82;126405;1095;102983;-77
2021/07/14 10:50:28;;;;;;;0.40;0.00;;;;;;;40.57;32.58;99892.19;126669;1094;102895;-76
2021/07/14 10:53:12;;;;;;;0.40;0.00;;;;;;;40.67;32.60;99897.13;126304;1095;103526;-76
2021/07/14 10:55:57;;;;;;;0.40;0.00;;;;;;;40.51;30.76;99896.01;126616;1094;115132;-81
2021/07/14 10:58:27;;;;;;;0.40;0.00;;;;;;;40.59;31.18;99897.55;127168;1094;114541;-84
2021/07/14 11:00:54;;;;;;;0.40;0.00;;;;;;;40.80;31.74;99898.72;126381;1095;103126;-84
2021/07/14 11:03:40;;;;;;;0.40;0.00;;;;;;;40.99;30.14;99898.50;125892;1096;102911;-85
2021/07/14 11:06:12;;;;;;;0.40;0.00;;;;;;;40.75;30.20;99896.70;127153;1095;101012;-87
2021/07/14 11:08:50;;;;;;;0.40;0.00;;;;;;;40.02;30.13;99898.36;127113;1096;100895;-84
2021/07/14 11:11:18;;;;;;;0.40;0.00;;;;;;;39.32;31.39;99914.08;125957;1096;103427;-84
2021/07/14 11:13:48;;;;;;;0.40;0.00;;;;;;;38.91;32.99;99908.31;126088;1096;103031;-84
2021/07/14 11:16:34;;;;;;;0.40;0.00;;;;;;;38.74;34.04;99905.41;125929;1096;103012;-84
2021/07/14 11:19:11;;;;;;;0.40;0.00;;;;;;;38.36;33.51;99907.42;126166;1095;103515;-85
2021/07/14 11:21:47;;;;;;;0.40;0.00;;;;;;;38.28;35.40;99899.41;126271;1095;102947;-84
2021/07/14 11:24:53;;;;;;;0.40;0.00;;;;;;;38.05;35.58;99905.70;126307;1096;102906;-86
2021/07/14 11:27:23;;;;;;;0.40;0.00;;;;;;;37.92;35.51;99904.80;126604;1095;102490;-86
2021/07/14 11:29:56;;;;;;;0.40;0.00;;;;;;;37.86;36.58;99904.88;126430;1096;102964;-83
2021/07/14 11:32:57;;;;;;;0.40;0.00;;;;;;;37.61;34.59;99912.16;126341;1096;102885;-84
2021/07/14 11:35:39;;;;;;;0.40;0.00;;;;;;;37.37;34.07;99896.42;126145;1096;103007;-86
2021/07/14 11:38:13;;;;;;;0.40;0.00;;;;;;;37.25;34.13;99907.39;126057;1096;103030;-85
2021/07/14 11:40:51;;;;;;;0.40;0.00;;;;;;;37.21;34.88;99906.16;126143;1095;102452;-85
2021/07/14 11:43:23;;;;;;;0.40;0.00;;;;;;;37.00;36.78;99908.25;126318;1095;103329;-87
2021/07/14 11:45:53;;;;;;;0.40;0.00;;;;;;;36.76;35.53;99898.81;126346;1096;102900;-87
2021/07/14 11:48:24;;;;;;;0.40;0.00;;;;;;;36.57;35.54;99903.44;126310;1096;102577;-85
2021/07/14 11:50:59;;;;;;;0.40;0.00;;;;;;;36.46;36.29;99894.75;126225;1096;102936;-88
2021/07/14 11:53:32;;;;;;;0.40;0.00;;;;;;;36.28;35.73;99895.48;126312;1095;102962;-88
2021/07/14 11:56:17;;;;;;;0.40;0.00;;;;;;;36.36;36.22;99896.32;126286;1096;102993;-86
2021/07/14 11:59:04;;;;;;;0.40;0.00;;;;;;;36.30;36.68;99895.27;126356;1095;102757;-87
2021/07/14 12:01:31;;;;;;;0.40;0.00;;;;;;;36.28;37.62;99889.08;126571;1096;102884;-85
2021/07/14 12:04:01;;;;;;;0.40;0.00;;;;;;;36.32;37.61;99895.88;126353;1095;103005;-85
2021/07/14 12:06:57;;;;;;;0.40;0.00;;;;;;;36.14;36.91;99893.86;126571;1096;102866;-86
2021/07/14 12:09:27;;;;;;;0.40;0.00;;;;;;;36.08;36.55;99895.60;126190;1096;102034;-88
2021/07/14 12:12:15;;;;;;;0.40;0.00;;;;;;;36.09;37.06;99888.95;126433;1094;102872;-83
2021/07/14 12:15:04;;;;;;;0.40;0.00;;;;;;;36.11;36.98;99888.73;126441;1095;102884;-86
2021/07/14 12:17:31;;;;;;;0.40;0.00;;;;;;;36.04;37.89;99887.93;126384;1095;103028;-86
2021/07/14 12:20:00;;;;;;;0.40;0.00;;;;;;;36.10;37.62;99878.74;126472;1095;102873;-86
2021/07/14 12:22:34;;;;;;;0.40;0.00;;;;;;;36.09;36.53;99888.13;126534;1096;101856;-85
2021/07/14 12:25:15;;;;;;;0.40;0.00;;;;;;;36.03;37.50;99886.22;126318;1096;102961;-87
2021/07/14 12:27:45;;;;;;;0.40;0.00;;;;;;;35.80;37.44;99877.36;126133;1096;103026;-85
2021/07/14 12:30:12;;;;;;;0.40;0.00;;;;;;;35.63;37.46;99878.91;125564;1095;102933;-85
2021/07/14 12:32:58;;;;;;;0.40;0.00;;;;;;;35.58;38.63;99887.02;126293;1096;102985;-87
2021/07/14 12:35:27;;;;;;;0.40;0.00;;;;;;;35.47;37.69;99883.02;126066;1095;102922;-85
2021/07/14 12:38:07;;;;;;;0.40;0.00;;;;;;;35.51;38.85;99884.27;125755;1096;102933;-84
2021/07/14 12:40:46;;;;;;;0.40;0.00;;;;;;;35.60;37.17;99884.88;126298;1096;102809;-86
2021/07/14 12:47:44;;;;;;;0.40;0.00;;;;;;;35.54;38.32;99881.06;126485;1095;101813;-92
2021/07/14 12:50:28;;;;;;;0.40;0.00;;;;;;;35.60;37.58;99868.25;126074;1096;104001;-69
2021/07/14 12:53:12;;;;;;;0.40;0.00;;;;;;;35.60;38.76;99884.88;126848;1095;102912;-74
2021/07/14 12:55:57;;;;;;;0.40;0.00;;;;;;;35.66;39.49;99875.70;126602;1096;102879;-73
2021/07/14 12:58:32;;;;;;;0.40;0.00;;;;;;;35.81;38.44;99890.11;126638;1095;102890;-73
2021/07/14 13:01:15;;;;;;;0.40;0.00;;;;;;;35.73;36.61;99884.82;126272;1095;102975;-74
2021/07/14 13:04:00;;;;;;;0.40;0.00;;;;;;;35.71;37.90;99881.44;126565;1096;103042;-71
2021/07/14 13:06:44;;;;;;;0.40;0.00;;;;;;;35.65;37.58;99890.61;126523;1096;102340;-74
2021/07/14 13:09:29;;;;;;;0.40;0.00;;;;;;;35.66;37.97;99895.09;126396;1095;102873;-75
2021/07/14 13:12:05;;;;;;;0.40;0.00;;;;;;;35.68;38.89;99887.39;126338;1096;103392;-74
2021/07/14 13:14:51;;;;;;;0.40;0.00;;;;;;;35.68;38.77;99881.86;126260;1095;102996;-75
2021/07/14 13:17:37;;;;;;;0.40;0.00;;;;;;;35.69;37.26;99879.95;126334;1096;102873;-73